sensor_id;sensor_type;location;lat;lon;timestamp;pressure;altitude;pressure_sealevel;temperature;humidity
78073;BME280;67281;48.770;11.440;2023-03-14T00:01:26;95585.72;;;17.97;47.70
78073;BME280;67281;48.770;11.440;2023-03-14T00:03:53;95603.25;;;17.98;47.20
78073;BME280;67281;48.770;11.440;2023-03-14T00:06:21;95646.66;;;17.97;47.81
78073;BME280;67281;48.770;11.440;2023-03-14T00:08:48;95661.94;;;17.95;47.46
78073;BME280;67281;48.770;11.440;2023-03-14T00:11:18;95703.72;;;17.93;47.61
78073;BME280;67281;48.770;11.440;2023-03-14T00:13:52;95715.31;;;17.92;47.94
78073;BME280;67281;48.770;11.440;2023-03-14T00:16:19;95696.78;;;17.92;47.66
78073;BME280;67281;48.770;11.440;2023-03-14T00:18:47;95673.94;;;17.91;47.29
78073;BME280;67281;48.770;11.440;2023-03-14T00:21:13;95670.66;;;17.89;47.49
78073;BME280;67281;48.770;11.440;2023-03-14T00:23:41;95676.78;;;17.89;47.76
78073;BME280;67281;48.770;11.440;2023-03-14T00:26:14;95667.19;;;17.88;47.10
78073;BME280;67281;48.770;11.440;2023-03-14T00:28:42;95622.53;;;17.85;48.07
78073;BME280;67281;48.770;11.440;2023-03-14T00:31:11;95627.00;;;17.85;47.94
78073;BME280;67281;48.770;11.440;2023-03-14T00:33:38;95642.91;;;17.85;47.32
78073;BME280;67281;48.770;11.440;2023-03-14T00:36:10;95666.53;;;17.80;48.15
78073;BME280;67281;48.770;11.440;2023-03-14T00:38:39;95680.78;;;17.79;47.47
78073;BME280;67281;48.770;11.440;2023-03-14T00:41:10;95656.75;;;17.80;48.05
78073;BME280;67281;48.770;11.440;2023-03-14T00:43:38;95650.00;;;17.78;47.79
78073;BME280;67281;48.770;11.440;2023-03-14T00:46:05;95664.28;;;17.77;47.56
78073;BME280;67281;48.770;11.440;2023-03-14T00:48:32;95663.19;;;17.71;48.01
78073;BME280;67281;48.770;11.440;2023-03-14T00:51:00;95677.00;;;17.66;48.13
78073;BME280;67281;48.770;11.440;2023-03-14T00:53:26;95682.31;;;17.66;47.94
78073;BME280;67281;48.770;11.440;2023-03-14T00:55:53;95679.81;;;17.65;48.70
78073;BME280;67281;48.770;11.440;2023-03-14T00:58:20;95682.84;;;17.62;48.60
78073;BME280;67281;48.770;11.440;2023-03-14T01:00:47;95683.41;;;17.57;48.85
78073;BME280;67281;48.770;11.440;2023-03-14T01:03:14;95685.44;;;17.55;48.81
78073;BME280;67281;48.770;11.440;2023-03-14T01:05:42;95675.59;;;17.49;49.18
78073;BME280;67281;48.770;11.440;2023-03-14T01:08:09;95683.53;;;17.49;48.30
78073;BME280;67281;48.770;11.440;2023-03-14T01:10:39;95688.50;;;17.37;48.86
78073;BME280;67281;48.770;11.440;2023-03-14T01:13:10;95683.03;;;17.39;49.34
78073;BME280;67281;48.770;11.440;2023-03-14T01:15:38;95694.88;;;17.43;48.89
78073;BME280;67281;48.770;11.440;2023-03-14T01:18:05;95688.50;;;17.37;48.48
78073;BME280;67281;48.770;11.440;2023-03-14T01:20:32;95685.22;;;17.35;48.80
78073;BME280;67281;48.770;11.440;2023-03-14T01:22:59;95688.13;;;17.40;49.11
78073;BME280;67281;48.770;11.440;2023-03-14T01:25:26;95706.03;;;17.38;48.54
78073;BME280;67281;48.770;11.440;2023-03-14T01:27:54;95701.03;;;17.29;49.16
78073;BME280;67281;48.770;11.440;2023-03-14T01:30:21;95703.94;;;17.34;49.17
78073;BME280;67281;48.770;11.440;2023-03-14T01:32:48;95705.22;;;17.38;48.79
78073;BME280;67281;48.770;11.440;2023-03-14T01:35:15;95709.69;;;17.37;48.96
78073;BME280;67281;48.770;11.440;2023-03-14T01:37:42;95705.84;;;17.40;48.16
78073;BME280;67281;48.770;11.440;2023-03-14T01:40:11;95695.63;;;17.37;48.74
78073;BME280;67281;48.770;11.440;2023-03-14T01:42:38;95677.84;;;17.31;48.61
78073;BME280;67281;48.770;11.440;2023-03-14T01:48:17;95648.97;;;17.36;48.14
78073;BME280;67281;48.770;11.440;2023-03-14T01:50:49;95636.13;;;17.33;48.79
78073;BME280;67281;48.770;11.440;2023-03-14T01:53:16;95605.59;;;17.37;48.00
78073;BME280;67281;48.770;11.440;2023-03-14T01:55:48;95595.84;;;17.37;48.48
78073;BME280;67281;48.770;11.440;2023-03-14T01:58:16;95582.41;;;17.39;47.83
78073;BME280;67281;48.770;11.440;2023-03-14T02:00:44;95582.78;;;17.36;48.40
78073;BME280;67281;48.770;11.440;2023-03-14T02:03:16;95571.38;;;17.35;48.20
78073;BME280;67281;48.770;11.440;2023-03-14T02:05:44;95554.03;;;17.33;48.38
78073;BME280;67281;48.770;11.440;2023-03-14T02:08:15;95526.56;;;17.34;48.44
78073;BME280;67281;48.770;11.440;2023-03-14T02:10:47;95510.03;;;17.32;47.78
78073;BME280;67281;48.770;11.440;2023-03-14T02:13:16;95554.25;;;17.31;48.46
78073;BME280;67281;48.770;11.440;2023-03-14T02:15:44;95551.22;;;17.34;48.03
78073;BME280;67281;48.770;11.440;2023-03-14T02:18:12;95559.34;;;17.33;48.01
78073;BME280;67281;48.770;11.440;2023-03-14T02:20:55;95530.59;;;17.30;48.38
78073;BME280;67281;48.770;11.440;2023-03-14T02:23:53;95540.00;;;17.32;47.60
78073;BME280;67281;48.770;11.440;2023-03-14T02:26:34;95538.72;;;17.28;47.69
78073;BME280;67281;48.770;11.440;2023-03-14T02:29:05;95564.00;;;17.31;47.79
78073;BME280;67281;48.770;11.440;2023-03-14T02:31:32;95567.09;;;17.34;47.94
78073;BME280;67281;48.770;11.440;2023-03-14T02:34:00;95563.25;;;17.37;47.55
78073;BME280;67281;48.770;11.440;2023-03-14T02:36:28;95558.97;;;17.36;48.04
78073;BME280;67281;48.770;11.440;2023-03-14T02:39:13;95566.91;;;17.36;48.12
78073;BME280;67281;48.770;11.440;2023-03-14T02:41:42;95567.72;;;17.36;47.44
78073;BME280;67281;48.770;11.440;2023-03-14T02:44:11;95575.84;;;17.35;47.53
78073;BME280;67281;48.770;11.440;2023-03-14T02:46:38;95596.78;;;17.30;47.82
78073;BME280;67281;48.770;11.440;2023-03-14T02:49:08;95591.88;;;17.27;48.21
78073;BME280;67281;48.770;11.440;2023-03-14T02:51:37;95592.88;;;17.26;48.05
78073;BME280;67281;48.770;11.440;2023-03-14T02:54:04;95589.84;;;17.29;47.49
78073;BME280;67281;48.770;11.440;2023-03-14T02:56:31;95594.13;;;17.30;47.57
78073;BME280;67281;48.770;11.440;2023-03-14T02:58:58;95584.56;;;17.29;47.93
78073;BME280;67281;48.770;11.440;2023-03-14T03:01:25;95583.94;;;17.27;47.50
78073;BME280;67281;48.770;11.440;2023-03-14T03:03:51;95584.94;;;17.26;47.50
78073;BME280;67281;48.770;11.440;2023-03-14T03:06:18;95580.47;;;17.26;47.42
78073;BME280;67281;48.770;11.440;2023-03-14T03:08:45;95578.00;;;17.25;48.20
78073;BME280;67281;48.770;11.440;2023-03-14T03:11:12;95574.72;;;17.23;47.84
78073;BME280;67281;48.770;11.440;2023-03-14T03:13:40;95575.53;;;17.23;47.76
78073;BME280;67281;48.770;11.440;2023-03-14T03:16:07;95578.19;;;17.23;48.07
78073;BME280;67281;48.770;11.440;2023-03-14T03:18:37;95573.91;;;17.22;47.42
78073;BME280;67281;48.770;11.440;2023-03-14T03:21:05;95568.81;;;17.21;48.06
78073;BME280;67281;48.770;11.440;2023-03-14T03:23:32;95560.88;;;17.21;48.15
78073;BME280;67281;48.770;11.440;2023-03-14T03:25:59;95558.22;;;17.21;47.59
78073;BME280;67281;48.770;11.440;2023-03-14T03:28:26;95558.03;;;17.22;47.35
78073;BME280;67281;48.770;11.440;2023-03-14T03:30:53;95548.25;;;17.23;47.36
78073;BME280;67281;48.770;11.440;2023-03-14T03:33:20;95545.34;;;17.18;47.77
78073;BME280;67281;48.770;11.440;2023-03-14T03:35:50;95534.59;;;17.19;47.90
78073;BME280;67281;48.770;11.440;2023-03-14T03:38:17;95535.59;;;17.18;48.02
78073;BME280;67281;48.770;11.440;2023-03-14T03:40:44;95538.03;;;17.20;47.90
78073;BME280;67281;48.770;11.440;2023-03-14T03:43:11;95546.19;;;17.18;47.61
78073;BME280;67281;48.770;11.440;2023-03-14T03:45:38;95548.81;;;17.18;47.63
78073;BME280;67281;48.770;11.440;2023-03-14T03:48:05;95544.34;;;17.19;47.28
78073;BME280;67281;48.770;11.440;2023-03-14T03:50:32;95543.34;;;17.20;47.42
78073;BME280;67281;48.770;11.440;2023-03-14T03:52:59;95540.06;;;17.18;47.24
78073;BME280;67281;48.770;11.440;2023-03-14T03:55:25;95540.88;;;17.18;47.43
78073;BME280;67281;48.770;11.440;2023-03-14T03:57:54;95543.53;;;17.18;47.47
78073;BME280;67281;48.770;11.440;2023-03-14T04:00:21;95545.34;;;17.18;47.42
78073;BME280;67281;48.770;11.440;2023-03-14T04:02:48;95528.84;;;17.16;47.29
78073;BME280;67281;48.770;11.440;2023-03-14T04:05:15;95522.94;;;17.14;47.58
78073;BME280;67281;48.770;11.440;2023-03-14T04:07:42;95530.88;;;17.14;47.64
78073;BME280;67281;48.770;11.440;2023-03-14T04:10:09;95514.34;;;17.12;47.78
78073;BME280;67281;48.770;11.440;2023-03-14T04:12:36;95517.00;;;17.12;47.81
78073;BME280;67281;48.770;11.440;2023-03-14T04:15:03;95510.91;;;17.11;47.32
78073;BME280;67281;48.770;11.440;2023-03-14T04:17:30;95504.78;;;17.11;47.61
78073;BME280;67281;48.770;11.440;2023-03-14T04:19:57;95509.25;;;17.10;47.30
78073;BME280;67281;48.770;11.440;2023-03-14T04:22:24;95515.56;;;17.09;47.24
78073;BME280;67281;48.770;11.440;2023-03-14T04:24:50;95516.38;;;17.09;47.90
78073;BME280;67281;48.770;11.440;2023-03-14T04:27:17;95504.97;;;17.09;47.80
78073;BME280;67281;48.770;11.440;2023-03-14T04:29:44;95510.25;;;17.09;47.47
78073;BME280;67281;48.770;11.440;2023-03-14T04:32:11;95510.25;;;17.09;47.17
78073;BME280;67281;48.770;11.440;2023-03-14T04:34:38;95512.50;;;17.05;47.59
78073;BME280;67281;48.770;11.440;2023-03-14T04:37:04;95522.09;;;17.06;47.40
78073;BME280;67281;48.770;11.440;2023-03-14T04:39:31;95520.19;;;17.00;47.64
78073;BME280;67281;48.770;11.440;2023-03-14T04:41:59;95523.66;;;17.01;47.20
78073;BME280;67281;48.770;11.440;2023-03-14T04:44:26;95521.81;;;17.01;47.36
78073;BME280;67281;48.770;11.440;2023-03-14T04:46:57;95524.22;;;16.96;47.31
78073;BME280;67281;48.770;11.440;2023-03-14T04:49:24;95518.94;;;16.96;47.23
78073;BME280;67281;48.770;11.440;2023-03-14T04:51:52;95513.63;;;16.96;47.27
78073;BME280;67281;48.770;11.440;2023-03-14T04:54:21;95508.97;;;16.98;47.62
78073;BME280;67281;48.770;11.440;2023-03-14T04:56:48;95494.31;;;16.96;47.61
78073;BME280;67281;48.770;11.440;2023-03-14T04:59:15;95499.78;;;16.94;47.65
78073;BME280;67281;48.770;11.440;2023-03-14T05:01:42;95498.78;;;16.95;47.52
78073;BME280;67281;48.770;11.440;2023-03-14T05:04:09;95490.03;;;16.95;47.61
78073;BME280;67281;48.770;11.440;2023-03-14T05:06:36;95488.56;;;16.92;47.76
78073;BME280;67281;48.770;11.440;2023-03-14T05:09:04;95490.41;;;16.92;47.50
78073;BME280;67281;48.770;11.440;2023-03-14T05:11:31;95485.53;;;16.95;47.47
78073;BME280;67281;48.770;11.440;2023-03-14T05:13:59;95481.81;;;16.90;48.00
78073;BME280;67281;48.770;11.440;2023-03-14T05:16:26;95478.56;;;16.88;47.86
78073;BME280;67281;48.770;11.440;2023-03-14T05:18:54;95468.16;;;16.86;47.30
78073;BME280;67281;48.770;11.440;2023-03-14T05:21:21;95459.59;;;16.84;47.63
78073;BME280;67281;48.770;11.440;2023-03-14T05:23:48;95453.31;;;16.85;47.61
78073;BME280;67281;48.770;11.440;2023-03-14T05:26:15;95459.59;;;16.84;47.88
78073;BME280;67281;48.770;11.440;2023-03-14T05:28:43;95449.66;;;16.86;47.87
78073;BME280;67281;48.770;11.440;2023-03-14T05:31:11;95449.00;;;16.84;47.63
78073;BME280;67281;48.770;11.440;2023-03-14T05:33:38;95457.53;;;16.80;47.47
78073;BME280;67281;48.770;11.440;2023-03-14T05:36:05;95465.66;;;16.78;47.34
78073;BME280;67281;48.770;11.440;2023-03-14T05:38:33;95456.50;;;16.81;47.58
78073;BME280;67281;48.770;11.440;2023-03-14T05:41:01;95467.28;;;16.79;47.36
78073;BME280;67281;48.770;11.440;2023-03-14T05:43:28;95459.34;;;16.79;47.32
78073;BME280;67281;48.770;11.440;2023-03-14T05:45:58;95460.53;;;16.77;47.28
78073;BME280;67281;48.770;11.440;2023-03-14T05:48:27;95450.97;;;16.75;47.22
78073;BME280;67281;48.770;11.440;2023-03-14T05:50:56;95450.16;;;16.75;47.65
78073;BME280;67281;48.770;11.440;2023-03-14T05:53:23;95430.63;;;16.76;47.54
78073;BME280;67281;48.770;11.440;2023-03-14T05:55:54;95433.66;;;16.73;47.37
78073;BME280;67281;48.770;11.440;2023-03-14T05:58:24;95433.47;;;16.74;47.69
78073;BME280;67281;48.770;11.440;2023-03-14T06:00:51;95437.94;;;16.74;47.92
78073;BME280;67281;48.770;11.440;2023-03-14T06:03:18;95429.38;;;16.72;47.81
78073;BME280;67281;48.770;11.440;2023-03-14T06:05:45;95438.94;;;16.73;47.71
78073;BME280;67281;48.770;11.440;2023-03-14T06:08:13;95433.66;;;16.73;47.83
78073;BME280;67281;48.770;11.440;2023-03-14T06:10:43;95438.94;;;16.73;47.96
78073;BME280;67281;48.770;11.440;2023-03-14T06:13:13;95434.66;;;16.72;47.74
78073;BME280;67281;48.770;11.440;2023-03-14T06:15:42;95433.66;;;16.73;47.41
78073;BME280;67281;48.770;11.440;2023-03-14T06:18:10;95431.63;;;16.75;48.17
78073;BME280;67281;48.770;11.440;2023-03-14T06:20:37;95431.84;;;16.73;47.96
78073;BME280;67281;48.770;11.440;2023-03-14T06:23:08;95429.81;;;16.75;47.96
78073;BME280;67281;48.770;11.440;2023-03-14T06:25:35;95431.88;;;16.80;47.20
78073;BME280;67281;48.770;11.440;2023-03-14T06:28:02;95433.53;;;16.81;47.95
78073;BME280;67281;48.770;11.440;2023-03-14T06:30:29;95445.94;;;16.81;47.40
78073;BME280;67281;48.770;11.440;2023-03-14T06:32:56;95440.84;;;16.79;47.66
78073;BME280;67281;48.770;11.440;2023-03-14T06:35:23;95440.84;;;16.79;47.29
78073;BME280;67281;48.770;11.440;2023-03-14T06:37:50;95430.44;;;16.78;47.80
78073;BME280;67281;48.770;11.440;2023-03-14T06:40:18;95432.28;;;16.77;47.63
78073;BME280;67281;48.770;11.440;2023-03-14T06:42:45;95433.91;;;16.78;47.35
78073;BME280;67281;48.770;11.440;2023-03-14T06:45:12;95436.56;;;16.78;47.48
78073;BME280;67281;48.770;11.440;2023-03-14T06:47:40;95439.19;;;16.78;47.29
78073;BME280;67281;48.770;11.440;2023-03-14T06:50:08;95429.00;;;16.75;47.90
78073;BME280;67281;48.770;11.440;2023-03-14T06:52:36;95430.44;;;16.78;47.91
78073;BME280;67281;48.770;11.440;2023-03-14T06:55:03;95429.00;;;16.75;47.59
78073;BME280;67281;48.770;11.440;2023-03-14T06:57:31;95429.25;;;16.80;47.50
78073;BME280;67281;48.770;11.440;2023-03-14T06:59:58;95427.22;;;16.82;46.98
78073;BME280;67281;48.770;11.440;2023-03-14T07:02:25;95431.50;;;16.83;47.47
78073;BME280;67281;48.770;11.440;2023-03-14T07:05:07;95426.16;;;16.77;47.32
78073;BME280;67281;48.770;11.440;2023-03-14T07:07:39;95434.72;;;16.79;47.92
78073;BME280;67281;48.770;11.440;2023-03-14T07:10:10;95436.75;;;16.77;47.42
78073;BME280;67281;48.770;11.440;2023-03-14T07:12:40;95442.47;;;16.80;47.71
78073;BME280;67281;48.770;11.440;2023-03-14T07:15:13;95445.75;;;16.82;47.68
78073;BME280;67281;48.770;11.440;2023-03-14T07:17:47;95443.09;;;16.82;47.64
78073;BME280;67281;48.770;11.440;2023-03-14T07:20:15;95451.22;;;16.81;47.19
78073;BME280;67281;48.770;11.440;2023-03-14T07:22:43;95462.63;;;16.81;47.06
78073;BME280;67281;48.770;11.440;2023-03-14T07:25:10;95465.06;;;16.83;47.27
78073;BME280;67281;48.770;11.440;2023-03-14T07:27:38;95467.72;;;16.83;47.15
78073;BME280;67281;48.770;11.440;2023-03-14T07:30:06;95475.84;;;16.81;47.73
78073;BME280;67281;48.770;11.440;2023-03-14T07:32:33;95489.06;;;16.81;47.29
78073;BME280;67281;48.770;11.440;2023-03-14T07:35:00;95499.47;;;16.83;47.38
78073;BME280;67281;48.770;11.440;2023-03-14T07:37:27;95497.56;;;16.77;47.40
78073;BME280;67281;48.770;11.440;2023-03-14T07:39:59;95491.28;;;16.78;47.60
78073;BME280;67281;48.770;11.440;2023-03-14T07:42:27;95488.63;;;16.78;47.34
78073;BME280;67281;48.770;11.440;2023-03-14T07:44:54;95483.97;;;16.80;47.10
78073;BME280;67281;48.770;11.440;2023-03-14T07:47:21;95485.81;;;16.79;46.89
78073;BME280;67281;48.770;11.440;2023-03-14T07:49:48;95483.53;;;16.76;47.15
78073;BME280;67281;48.770;11.440;2023-03-14T07:52:16;95484.97;;;16.79;47.64
78073;BME280;67281;48.770;11.440;2023-03-14T07:54:43;95487.63;;;16.79;47.67
78073;BME280;67281;48.770;11.440;2023-03-14T07:57:12;95481.06;;;16.74;47.07
78073;BME280;67281;48.770;11.440;2023-03-14T07:59:40;95480.25;;;16.74;47.65
78073;BME280;67281;48.770;11.440;2023-03-14T08:02:10;95477.41;;;16.75;47.45
78073;BME280;67281;48.770;11.440;2023-03-14T08:04:39;95480.25;;;16.74;47.00
78073;BME280;67281;48.770;11.440;2023-03-14T08:07:12;95475.16;;;16.72;47.61
78073;BME280;67281;48.770;11.440;2023-03-14T08:09:44;95468.66;;;16.75;47.37
78073;BME280;67281;48.770;11.440;2023-03-14T08:12:11;95468.22;;;16.71;47.27
78073;BME280;67281;48.770;11.440;2023-03-14T08:14:38;95469.88;;;16.72;47.10
78073;BME280;67281;48.770;11.440;2023-03-14T08:17:05;95462.94;;;16.71;47.08
78073;BME280;67281;48.770;11.440;2023-03-14T08:19:34;95465.66;;;16.78;47.54
78073;BME280;67281;48.770;11.440;2023-03-14T08:22:02;95460.34;;;16.78;47.60
78073;BME280;67281;48.770;11.440;2023-03-14T08:24:31;95453.88;;;16.81;46.90
78073;BME280;67281;48.770;11.440;2023-03-14T08:26:58;95455.06;;;16.78;47.00
78073;BME280;67281;48.770;11.440;2023-03-14T08:29:25;95457.16;;;16.83;47.48
78073;BME280;67281;48.770;11.440;2023-03-14T08:31:52;95451.03;;;16.82;47.10
78073;BME280;67281;48.770;11.440;2023-03-14T08:34:20;95449.41;;;16.81;47.02
78073;BME280;67281;48.770;11.440;2023-03-14T08:36:47;95445.31;;;16.79;47.41
78073;BME280;67281;48.770;11.440;2023-03-14T08:39:14;95449.41;;;16.81;47.07
78073;BME280;67281;48.770;11.440;2023-03-14T08:41:41;95450.28;;;16.88;47.50
78073;BME280;67281;48.770;11.440;2023-03-14T08:44:10;95448.25;;;16.90;47.02
78073;BME280;67281;48.770;11.440;2023-03-14T08:46:44;95447.44;;;16.90;47.22
78073;BME280;67281;48.770;11.440;2023-03-14T08:49:11;95447.25;;;16.91;46.80
78073;BME280;67281;48.770;11.440;2023-03-14T08:51:38;95442.97;;;16.90;47.28
78073;BME280;67281;48.770;11.440;2023-03-14T08:54:09;95452.78;;;16.96;47.12
78073;BME280;67281;48.770;11.440;2023-03-14T08:56:36;95450.31;;;16.95;47.02
78073;BME280;67281;48.770;11.440;2023-03-14T08:59:07;95454.41;;;16.97;47.07
78073;BME280;67281;48.770;11.440;2023-03-14T09:01:34;95459.34;;;17.00;46.98
78073;BME280;67281;48.770;11.440;2023-03-14T09:04:01;95452.78;;;16.96;46.76
78073;BME280;67281;48.770;11.440;2023-03-14T09:06:28;95450.31;;;16.95;47.37
78073;BME280;67281;48.770;11.440;2023-03-14T09:08:56;95445.47;;;16.98;47.50
78073;BME280;67281;48.770;11.440;2023-03-14T09:11:22;95440.63;;;17.02;47.07
78073;BME280;67281;48.770;11.440;2023-03-14T09:13:49;95439.19;;;16.99;46.90
78073;BME280;67281;48.770;11.440;2023-03-14T09:16:16;95437.97;;;17.02;47.15
78073;BME280;67281;48.770;11.440;2023-03-14T09:18:43;95451.63;;;17.05;47.34
78073;BME280;67281;48.770;11.440;2023-03-14T09:21:10;95443.50;;;17.07;46.92
78073;BME280;67281;48.770;11.440;2023-03-14T09:23:38;95442.50;;;17.15;46.47
78073;BME280;67281;48.770;11.440;2023-03-14T09:26:05;95456.56;;;17.15;46.68
78073;BME280;67281;48.770;11.440;2023-03-14T09:28:32;95442.91;;;17.12;46.56
78073;BME280;67281;48.770;11.440;2023-03-14T09:31:09;95446.56;;;17.11;47.10
78073;BME280;67281;48.770;11.440;2023-03-14T09:33:37;95443.53;;;17.14;47.19
78073;BME280;67281;48.770;11.440;2023-03-14T09:36:05;95443.53;;;17.14;46.98
78073;BME280;67281;48.770;11.440;2023-03-14T09:38:34;95440.75;;;17.22;47.00
78073;BME280;67281;48.770;11.440;2023-03-14T09:41:03;95446.03;;;17.22;46.60
78073;BME280;67281;48.770;11.440;2023-03-14T09:43:31;95448.50;;;17.23;47.22
78073;BME280;67281;48.770;11.440;2023-03-14T09:46:01;95434.88;;;17.26;46.98
78073;BME280;67281;48.770;11.440;2023-03-14T09:48:33;95438.81;;;17.37;46.71
78073;BME280;67281;48.770;11.440;2023-03-14T09:51:04;95433.13;;;17.40;46.25
78073;BME280;67281;48.770;11.440;2023-03-14T09:53:48;95428.66;;;17.40;46.82
78073;BME280;67281;48.770;11.440;2023-03-14T09:56:16;95436.59;;;17.40;46.62
78073;BME280;67281;48.770;11.440;2023-03-14T09:58:50;95433.56;;;17.44;46.54
78073;BME280;67281;48.770;11.440;2023-03-14T10:01:22;95431.53;;;17.46;46.15
78073;BME280;67281;48.770;11.440;2023-03-14T10:03:54;95437.63;;;17.46;46.66
78073;BME280;67281;48.770;11.440;2023-03-14T10:06:22;95429.28;;;17.42;47.13
78073;BME280;67281;48.770;11.440;2023-03-14T10:08:50;95421.38;;;17.49;46.36
78073;BME280;67281;48.770;11.440;2023-03-14T10:11:17;95414.91;;;17.58;46.31
78073;BME280;67281;48.770;11.440;2023-03-14T10:14:07;95422.84;;;17.58;46.61
78073;BME280;67281;48.770;11.440;2023-03-14T10:16:37;95410.41;;;17.59;46.67
78073;BME280;67281;48.770;11.440;2023-03-14T10:19:13;95422.25;;;17.63;46.26
78073;BME280;67281;48.770;11.440;2023-03-14T10:21:42;95423.28;;;17.62;46.84
78073;BME280;67281;48.770;11.440;2023-03-14T10:24:21;95420.19;;;17.58;46.06
78073;BME280;67281;48.770;11.440;2023-03-14T10:26:49;95414.69;;;17.60;46.81
78073;BME280;67281;48.770;11.440;2023-03-14T10:29:18;95420.44;;;17.63;46.78
78073;BME280;67281;48.770;11.440;2023-03-14T10:31:52;95423.06;;;17.63;46.43
78073;BME280;67281;48.770;11.440;2023-03-14T10:34:46;95414.56;;;17.68;46.21
78073;BME280;67281;48.770;11.440;2023-03-14T10:37:29;95416.63;;;17.72;46.62
78073;BME280;67281;48.770;11.440;2023-03-14T10:40:00;95422.78;;;17.80;45.81
78073;BME280;67281;48.770;11.440;2023-03-14T10:42:34;95417.09;;;17.89;45.51
78073;BME280;67281;48.770;11.440;2023-03-14T10:45:20;95410.38;;;17.93;45.80
78073;BME280;67281;48.770;11.440;2023-03-14T10:47:50;95416.03;;;17.84;45.53
78073;BME280;67281;48.770;11.440;2023-03-14T10:50:28;95416.84;;;17.71;46.50
78073;BME280;67281;48.770;11.440;2023-03-14T10:52:57;95425.72;;;17.63;46.42
78073;BME280;67281;48.770;11.440;2023-03-14T10:55:40;95408.19;;;17.62;46.35
78073;BME280;67281;48.770;11.440;2023-03-14T10:58:30;95415.78;;;17.65;47.00
78073;BME280;67281;48.770;11.440;2023-03-14T11:04:15;95406.44;;;17.69;46.73
78073;BME280;67281;48.770;11.440;2023-03-14T11:06:55;95407.25;;;17.70;46.48
78073;BME280;67281;48.770;11.440;2023-03-14T11:09:41;95415.00;;;17.71;46.47
78073;BME280;67281;48.770;11.440;2023-03-14T11:14:58;95400.41;;;18.02;45.66
78073;BME280;67281;48.770;11.440;2023-03-14T11:17:35;95395.97;;;18.09;45.90
78073;BME280;67281;48.770;11.440;2023-03-14T11:20:31;95397.59;;;18.10;45.76
78073;BME280;67281;48.770;11.440;2023-03-14T11:23:04;95390.44;;;18.04;45.50
78073;BME280;67281;48.770;11.440;2023-03-14T11:28:37;95386.09;;;17.83;46.14
78073;BME280;67281;48.770;11.440;2023-03-14T11:34:16;95388.13;;;17.81;46.68
78073;BME280;67281;48.770;11.440;2023-03-14T11:37:00;95379.56;;;17.79;46.48
78073;BME280;67281;48.770;11.440;2023-03-14T11:39:56;95373.06;;;17.82;46.45
78073;BME280;67281;48.770;11.440;2023-03-14T11:42:26;95374.50;;;17.91;46.29
78073;BME280;67281;48.770;11.440;2023-03-14T11:44:55;95373.69;;;17.97;46.20
78073;BME280;67281;48.770;11.440;2023-03-14T11:47:30;95374.72;;;18.02;46.11
78073;BME280;67281;48.770;11.440;2023-03-14T11:50:15;95363.72;;;17.99;45.92
78073;BME280;67281;48.770;11.440;2023-03-14T11:52:48;95365.31;;;17.93;46.05
78073;BME280;67281;48.770;11.440;2023-03-14T11:55:26;95360.84;;;17.94;45.88
78073;BME280;67281;48.770;11.440;2023-03-14T11:57:59;95361.06;;;17.99;45.37
78073;BME280;67281;48.770;11.440;2023-03-14T12:00:27;95353.91;;;17.93;45.80
78073;BME280;67281;48.770;11.440;2023-03-14T12:03:26;95356.34;;;17.88;45.65
78073;BME280;67281;48.770;11.440;2023-03-14T12:08:39;95351.44;;;17.85;45.88
78073;BME280;67281;48.770;11.440;2023-03-14T12:11:16;95345.13;;;17.86;46.05
78073;BME280;67281;48.770;11.440;2023-03-14T12:13:52;95346.97;;;17.79;46.23
78073;BME280;67281;48.770;11.440;2023-03-14T12:16:31;95346.34;;;17.77;46.29
78073;BME280;67281;48.770;11.440;2023-03-14T12:19:13;95358.34;;;17.72;46.73
78073;BME280;67281;48.770;11.440;2023-03-14T12:21:49;95348.97;;;17.70;46.42
78073;BME280;67281;48.770;11.440;2023-03-14T12:24:19;95357.34;;;17.73;46.66
78073;BME280;67281;48.770;11.440;2023-03-14T12:27:00;95346.13;;;17.71;46.25
78073;BME280;67281;48.770;11.440;2023-03-14T12:29:27;95346.75;;;17.73;46.53
78073;BME280;67281;48.770;11.440;2023-03-14T12:32:24;95356.13;;;17.76;46.19
78073;BME280;67281;48.770;11.440;2023-03-14T12:34:51;95346.53;;;17.75;46.22
78073;BME280;67281;48.770;11.440;2023-03-14T12:47:56;95370.66;;;18.00;45.68
78073;BME280;67281;48.770;11.440;2023-03-14T12:50:31;95347.22;;;18.10;45.70
78073;BME280;67281;48.770;11.440;2023-03-14T12:56:02;95338.84;;;18.00;45.53
78073;BME280;67281;48.770;11.440;2023-03-14T12:58:50;95338.81;;;17.87;45.95
78073;BME280;67281;48.770;11.440;2023-03-14T13:01:21;95345.94;;;17.80;45.52
78073;BME280;67281;48.770;11.440;2023-03-14T13:03:53;95349.19;;;17.75;45.86
78073;BME280;67281;48.770;11.440;2023-03-14T13:06:48;95351.41;;;17.71;45.95
78073;BME280;67281;48.770;11.440;2023-03-14T13:09:51;95361.19;;;17.71;46.26
78073;BME280;67281;48.770;11.440;2023-03-14T13:12:25;95353.88;;;17.73;46.71
78073;BME280;67281;48.770;11.440;2023-03-14T13:14:54;95351.41;;;17.71;46.23
78073;BME280;67281;48.770;11.440;2023-03-14T13:17:26;95359.59;;;17.77;46.32
78073;BME280;67281;48.770;11.440;2023-03-14T13:20:11;95358.78;;;17.76;46.75
78073;BME280;67281;48.770;11.440;2023-03-14T13:22:46;95355.31;;;17.76;46.59
78073;BME280;67281;48.770;11.440;2023-03-14T13:25:13;95366.09;;;17.74;46.32
78073;BME280;67281;48.770;11.440;2023-03-14T13:27:40;95366.31;;;17.72;46.44
78073;BME280;67281;48.770;11.440;2023-03-14T13:30:18;95377.63;;;17.60;47.29
78073;BME280;67281;48.770;11.440;2023-03-14T13:32:51;95405.13;;;17.59;47.54
78073;BME280;67281;48.770;11.440;2023-03-14T13:35:25;95415.28;;;17.55;47.53
78073;BME280;67281;48.770;11.440;2023-03-14T13:37:57;95432.59;;;17.51;47.66